createdAt,value
2022-10-28T00:00:00.269Z,3.23
2022-10-28T00:03:02.532Z,3.30
2022-10-28T00:06:07.071Z,2.97
2022-10-28T00:09:12.092Z,4.13
2022-10-28T00:12:14.105Z,2.80
2022-10-28T00:15:15.938Z,3.30
2022-10-28T00:18:17.569Z,2.70
2022-10-28T00:21:22.118Z,2.70
2022-10-28T00:24:23.868Z,2.70
2022-10-28T00:27:25.564Z,3.47
2022-10-28T00:30:27.245Z,2.87
2022-10-28T00:33:28.908Z,2.87
2022-10-28T00:36:36.037Z,3.13
2022-10-28T00:39:37.731Z,2.73
2022-10-28T00:42:39.381Z,3.67
2022-10-28T00:45:41.117Z,3.17
2022-10-28T00:48:45.373Z,3.07
2022-10-28T00:51:51.525Z,2.90
2022-10-28T00:54:53.984Z,2.67
2022-10-28T00:57:57.406Z,3.03
2022-10-28T01:00:59.151Z,2.57
2022-10-28T01:04:01.357Z,2.97
2022-10-28T01:07:03.072Z,3.13
2022-10-28T01:10:05.787Z,2.73
2022-10-28T01:13:38.703Z,3.03
2022-10-28T01:17:13.155Z,2.37
2022-10-28T01:20:20.698Z,2.57
2022-10-28T01:23:48.210Z,2.87
2022-10-28T01:27:00.746Z,2.83
2022-10-28T01:30:16.473Z,2.40
2022-10-28T01:33:28.536Z,3.00
2022-10-28T01:36:46.849Z,2.17
2022-10-28T01:40:13.572Z,3.37
2022-10-28T01:43:27.468Z,3.13
2022-10-28T01:46:41.202Z,3.00
2022-10-28T01:49:52.406Z,3.20
2022-10-28T01:52:57.566Z,3.10
2022-10-28T01:56:03.838Z,2.63
2022-10-28T01:59:12.553Z,2.90
2022-10-28T02:02:18.252Z,3.20
2022-10-28T02:05:40.895Z,2.80
2022-10-28T02:08:54.675Z,2.63
2022-10-28T02:12:19.957Z,2.77
2022-10-28T02:15:37.456Z,2.50
2022-10-28T02:19:04.310Z,2.80
2022-10-28T02:22:27.227Z,2.57
2022-10-28T02:25:43.313Z,2.87
2022-10-28T02:29:01.757Z,3.67
2022-10-28T02:32:08.004Z,3.07
2022-10-28T02:35:16.571Z,3.20
2022-10-28T02:38:38.271Z,3.40
2022-10-28T02:41:56.272Z,3.00
2022-10-28T02:45:10.680Z,2.97
2022-10-28T02:48:34.925Z,2.80
2022-10-28T02:51:46.440Z,3.63
2022-10-28T02:54:54.088Z,2.70
2022-10-28T02:57:57.619Z,2.73
2022-10-28T03:00:59.332Z,2.93
2022-10-28T03:04:01.027Z,3.07
2022-10-28T03:07:02.721Z,2.77
2022-10-28T03:10:04.869Z,2.93
2022-10-28T03:13:06.541Z,1.87
2022-10-28T03:16:08.270Z,2.47
2022-10-28T03:19:10.013Z,3.60
2022-10-28T03:22:11.765Z,3.27
2022-10-28T03:25:13.480Z,3.00
2022-10-28T03:28:15.185Z,3.37
2022-10-28T03:31:17.077Z,3.40
2022-10-28T03:34:18.772Z,2.37
2022-10-28T03:37:20.421Z,3.00
2022-10-28T03:40:22.088Z,3.17
2022-10-28T03:43:23.967Z,3.17
2022-10-28T03:46:25.638Z,3.57
2022-10-28T03:49:27.678Z,3.40
2022-10-28T03:52:29.358Z,2.90
2022-10-28T03:55:31.034Z,2.67
2022-10-28T03:58:35.117Z,2.40
2022-10-28T04:01:39.312Z,2.80
2022-10-28T04:04:41.380Z,3.33
2022-10-28T04:07:43.037Z,2.73
2022-10-28T04:10:47.454Z,2.83
2022-10-28T04:13:49.383Z,3.00
2022-10-28T04:16:51.022Z,2.03
2022-10-28T04:19:52.738Z,2.90
2022-10-28T04:22:57.099Z,2.77
2022-10-28T04:25:59.054Z,2.37
2022-10-28T04:29:00.680Z,2.67
2022-10-28T04:32:02.580Z,3.13
2022-10-28T04:35:04.585Z,2.77
2022-10-28T05:28:59.099Z,3.43
2022-10-28T05:32:00.843Z,3.30
2022-10-28T05:35:02.869Z,2.93
2022-10-28T05:38:04.833Z,2.67
2022-10-28T05:41:06.500Z,2.70
2022-10-28T05:44:08.132Z,2.60
2022-10-28T05:47:09.748Z,2.30
2022-10-28T05:50:12.900Z,2.80
2022-10-28T05:53:15.017Z,3.07
2022-10-28T05:56:17.638Z,2.87
2022-10-28T06:03:35.722Z,2.90
2022-10-28T06:06:37.427Z,2.83
2022-10-28T06:09:39.069Z,2.80
2022-10-28T06:12:39.460Z,2.93
2022-10-28T06:15:41.185Z,2.77
2022-10-28T06:18:42.840Z,2.77
2022-10-28T06:21:44.447Z,2.60
2022-10-28T06:24:46.111Z,3.07
2022-10-28T06:27:58.513Z,2.27
2022-10-28T06:31:04.758Z,2.37
2022-10-28T06:34:08.271Z,2.43
2022-10-28T06:37:09.970Z,2.77
2022-10-28T06:40:11.640Z,3.93
2022-10-28T06:43:13.982Z,2.97
2022-10-28T06:46:15.760Z,3.60
2022-10-28T06:49:19.011Z,3.20
2022-10-28T06:52:20.660Z,3.43
2022-10-28T06:55:22.421Z,3.20
2022-10-28T06:58:25.161Z,2.83
2022-10-28T07:01:26.933Z,2.60
2022-10-28T07:04:28.647Z,2.90
2022-10-28T07:07:30.262Z,3.27
2022-10-28T07:10:32.017Z,3.47
2022-10-28T07:13:34.384Z,3.23
2022-10-28T07:16:36.491Z,3.50
2022-10-28T07:19:38.162Z,3.60
2022-10-28T07:22:39.806Z,3.87
2022-10-28T07:25:41.933Z,3.53
2022-10-28T07:28:43.602Z,3.43
2022-10-28T07:31:45.291Z,3.03
2022-10-28T07:34:47.062Z,3.37
2022-10-28T07:37:48.693Z,3.10
2022-10-28T07:40:50.343Z,3.00
2022-10-28T07:43:52.165Z,3.63
2022-10-28T07:46:57.188Z,4.10
2022-10-28T07:49:59.979Z,3.40
2022-10-28T07:53:01.693Z,3.73
2022-10-28T07:56:07.193Z,5.17
2022-10-28T07:59:08.890Z,5.03
2022-10-28T08:02:17.323Z,5.90
2022-10-28T08:05:19.011Z,5.30
2022-10-28T08:08:20.650Z,5.00
2022-10-28T08:11:23.881Z,5.63
2022-10-28T08:14:25.594Z,5.23
2022-10-28T08:17:27.227Z,4.87
2022-10-28T08:20:28.915Z,5.33
2022-10-28T08:23:30.606Z,5.33
2022-10-28T08:26:32.302Z,5.00
2022-10-28T08:29:33.931Z,4.53
2022-10-28T08:32:35.589Z,4.90
2022-10-28T08:35:37.297Z,5.97
2022-10-28T08:38:44.942Z,4.83
2022-10-28T08:42:26.611Z,4.87
2022-10-28T08:45:46.980Z,4.23
2022-10-28T08:48:48.882Z,4.67
2022-10-28T08:52:19.830Z,5.63
2022-10-28T08:55:33.847Z,4.83
2022-10-28T08:58:38.993Z,4.80
2022-10-28T09:02:03.368Z,4.40
2022-10-28T09:05:26.750Z,4.50
2022-10-28T09:08:31.373Z,3.67
2022-10-28T09:12:10.386Z,4.03
2022-10-28T09:15:15.016Z,3.40
2022-10-28T09:18:39.229Z,3.90
2022-10-28T09:22:20.868Z,2.97
2022-10-28T09:25:53.686Z,3.57
2022-10-28T09:29:25.352Z,3.03
2022-10-28T09:32:39.891Z,3.30
2022-10-28T09:35:45.659Z,3.30
2022-10-28T09:38:51.338Z,3.20
2022-10-28T09:41:54.197Z,3.63
2022-10-28T09:45:01.554Z,2.58
2022-10-28T09:48:08.471Z,2.83
2022-10-28T09:51:23.921Z,2.43
2022-10-28T09:54:42.148Z,1.90
2022-10-28T09:57:44.101Z,2.22
2022-10-28T10:00:46.123Z,2.60
2022-10-28T10:03:49.514Z,2.45
2022-10-28T10:06:55.179Z,3.33
2022-10-28T10:09:59.760Z,2.70
2022-10-28T10:13:04.642Z,2.90
2022-10-28T10:16:19.763Z,2.42
2022-10-28T10:19:21.590Z,3.28
2022-10-28T10:22:43.758Z,2.60
2022-10-28T10:25:45.550Z,2.33
2022-10-28T10:28:49.293Z,2.40
2022-10-28T10:32:12.711Z,3.42
2022-10-28T10:35:19.831Z,2.20
2022-10-28T10:38:21.731Z,2.33
2022-10-28T10:41:44.297Z,2.60
2022-10-28T10:44:56.492Z,2.50
2022-10-28T10:48:14.950Z,1.88
2022-10-28T10:51:24.015Z,2.50
2022-10-28T10:54:27.763Z,2.22
2022-10-28T10:57:30.482Z,2.55
2022-10-28T11:00:45.046Z,2.67
2022-10-28T11:03:55.604Z,2.83
2022-10-28T11:06:58.232Z,2.35
2022-10-28T11:10:01.472Z,3.70
2022-10-28T11:13:15.482Z,2.33
2022-10-28T11:16:23.270Z,2.03
2022-10-28T11:19:33.695Z,3.08
2022-10-28T11:22:47.576Z,2.85
2022-10-28T11:26:01.218Z,2.13
2022-10-28T11:29:15.517Z,2.95
2022-10-28T11:33:01.706Z,2.40
2022-10-28T11:36:41.151Z,2.97
2022-10-28T11:40:25.445Z,2.95
2022-10-28T11:43:42.768Z,2.67
2022-10-28T11:47:05.049Z,3.05
2022-10-28T11:50:27.824Z,2.20
2022-10-28T11:53:48.316Z,2.20
2022-10-28T11:56:59.043Z,3.40
2022-10-28T12:00:14.631Z,2.45
2022-10-28T12:03:34.944Z,2.17
2022-10-28T12:07:14.318Z,2.78
2022-10-28T12:10:54.399Z,2.03
2022-10-28T12:14:32.041Z,2.83
2022-10-28T12:17:46.119Z,2.15
2022-10-28T12:20:58.768Z,2.55
2022-10-28T12:24:01.255Z,2.47
2022-10-28T12:27:19.699Z,1.92
2022-10-28T12:30:31.568Z,2.67
2022-10-28T12:33:34.886Z,2.38
2022-10-28T12:36:52.761Z,2.83
2022-10-28T12:40:01.846Z,2.42
2022-10-28T12:43:39.679Z,2.40
2022-10-28T12:47:06.739Z,2.50
2022-10-28T12:50:08.318Z,2.42
2022-10-28T12:53:53.212Z,3.15
2022-10-28T12:57:17.898Z,2.78
2022-10-28T13:00:28.091Z,2.55
2022-10-28T13:03:31.283Z,2.70
2022-10-28T13:07:03.720Z,2.50
2022-10-28T13:10:11.369Z,2.35
2022-10-28T13:13:46.268Z,2.30
2022-10-28T13:17:21.889Z,3.05
2022-10-28T13:20:38.815Z,2.22
2022-10-28T13:24:11.192Z,3.53
2022-10-28T13:27:14.212Z,2.05
2022-10-28T13:30:18.162Z,2.47
2022-10-28T13:33:24.756Z,2.55
2022-10-28T13:36:28.025Z,2.20
2022-10-28T13:39:29.648Z,2.58
2022-10-28T13:42:45.787Z,2.17
2022-10-28T13:45:48.242Z,2.70
2022-10-28T13:48:50.353Z,2.80
2022-10-28T13:52:19.111Z,2.22
2022-10-28T13:55:42.869Z,2.65
2022-10-28T13:59:16.159Z,2.45
2022-10-28T14:02:38.749Z,2.85
2022-10-28T14:05:40.573Z,2.65
2022-10-28T14:08:42.647Z,2.72
2022-10-28T14:11:44.343Z,4.00
2022-10-28T14:14:53.791Z,2.67
2022-10-28T14:21:46.950Z,2.72
2022-10-28T14:24:49.634Z,3.45
2022-10-28T14:27:51.476Z,2.40
2022-10-28T14:31:11.665Z,3.05
2022-10-28T14:34:13.422Z,1.92
2022-10-28T14:37:34.620Z,2.15
2022-10-28T14:40:39.003Z,2.88
2022-10-28T14:43:55.567Z,3.15
2022-10-28T14:47:31.123Z,2.83
2022-10-28T14:50:41.666Z,2.20
2022-10-28T14:53:45.368Z,2.63
2022-10-28T14:56:47.943Z,3.13
2022-10-28T14:59:51.422Z,2.75
2022-10-28T15:02:54.380Z,4.50
2022-10-28T15:05:56.422Z,2.50
2022-10-28T15:09:06.099Z,2.88
2022-10-28T15:12:11.676Z,2.80
2022-10-28T15:15:25.933Z,2.53
2022-10-28T15:18:27.564Z,2.78
2022-10-28T15:21:29.212Z,2.75
2022-10-28T15:24:31.414Z,2.70
2022-10-28T15:27:35.893Z,2.50
2022-10-28T15:30:46.523Z,2.70
2022-10-28T15:33:48.647Z,2.22
2022-10-28T15:40:20.332Z,2.70
2022-10-28T15:43:27.783Z,2.47
2022-10-28T15:46:32.006Z,3.00
2022-10-28T15:49:35.418Z,2.67
2022-10-28T15:52:44.618Z,2.60
2022-10-28T15:59:23.071Z,2.58
2022-10-28T16:02:41.360Z,2.42
2022-10-28T16:05:44.934Z,3.10
2022-10-28T16:08:47.365Z,3.10
2022-10-28T16:11:58.673Z,2.97
2022-10-28T16:15:02.034Z,2.95
2022-10-28T16:18:03.775Z,2.60
2022-10-28T16:21:05.765Z,3.65
2022-10-28T16:24:10.108Z,2.63
2022-10-28T16:27:21.175Z,3.13
2022-10-28T16:33:33.037Z,3.45
2022-10-28T16:36:34.720Z,3.10
2022-10-28T16:39:36.333Z,2.78
2022-10-28T16:42:38.520Z,2.92
2022-10-28T16:45:40.160Z,2.55
2022-10-28T16:48:41.857Z,3.05
2022-10-28T16:51:44.515Z,3.00
2022-10-28T16:54:47.123Z,2.72
2022-10-28T16:57:48.802Z,3.10
2022-10-28T17:00:50.457Z,3.28
2022-10-28T17:03:52.087Z,3.37
2022-10-28T17:06:53.726Z,3.00
2022-10-28T17:09:56.827Z,3.00
2022-10-28T17:12:58.570Z,2.77
2022-10-28T17:16:00.247Z,3.05
2022-10-28T17:19:01.861Z,3.13
2022-10-28T17:22:08.963Z,3.10
2022-10-28T17:25:11.973Z,3.10
2022-10-28T17:28:13.605Z,3.47
2022-10-28T17:31:19.144Z,3.67
2022-10-28T17:34:23.808Z,3.30
2022-10-28T17:37:25.487Z,3.10
2022-10-28T17:40:27.205Z,3.33
2022-10-28T17:43:29.039Z,2.93
2022-10-28T17:46:30.702Z,4.27
2022-10-28T17:49:34.168Z,3.33
2022-10-28T17:52:38.476Z,2.97
2022-10-28T17:55:42.050Z,3.30
2022-10-28T17:58:43.744Z,3.10
2022-10-28T18:01:45.521Z,3.63
2022-10-28T18:04:47.246Z,4.30
2022-10-28T18:07:48.947Z,3.70
2022-10-28T18:10:55.172Z,4.17
2022-10-28T18:13:56.887Z,4.00
2022-10-28T18:16:58.651Z,3.70
2022-10-28T18:20:01.924Z,3.60
2022-10-28T18:23:03.827Z,3.60
2022-10-28T18:26:07.789Z,4.03
2022-10-28T18:29:10.167Z,3.17
2022-10-28T18:32:12.066Z,4.40
2022-10-28T18:35:13.730Z,6.07
2022-10-28T18:38:15.371Z,5.27
2022-10-28T18:41:25.792Z,5.27
2022-10-28T18:44:31.701Z,5.00
2022-10-28T18:47:34.853Z,7.70
2022-10-28T18:50:36.504Z,12.47
2022-10-28T18:53:40.409Z,14.40
2022-10-28T18:56:46.213Z,14.83
2022-10-28T19:00:16.810Z,15.87
2022-10-28T19:03:19.912Z,16.43
2022-10-28T19:06:22.676Z,21.07
2022-10-28T19:09:24.399Z,21.07
2022-10-28T19:12:26.067Z,21.40
2022-10-28T19:15:27.754Z,19.87
2022-10-28T19:18:29.516Z,17.60
2022-10-28T19:21:31.700Z,16.40
2022-10-28T19:24:33.403Z,14.23
2022-10-28T19:27:35.091Z,14.20
2022-10-28T19:30:37.543Z,12.93
2022-10-28T19:33:39.599Z,12.87
2022-10-28T19:36:41.272Z,10.03
2022-10-28T19:39:42.897Z,9.60
2022-10-28T19:42:44.591Z,9.10
2022-10-28T19:45:46.304Z,9.90
2022-10-28T19:48:50.229Z,8.53
2022-10-28T19:51:51.887Z,7.97
2022-10-28T19:54:53.532Z,8.70
2022-10-28T19:57:55.735Z,7.60
2022-10-28T20:01:05.425Z,8.30
2022-10-28T20:04:08.724Z,9.23
2022-10-28T20:07:10.399Z,11.03
2022-10-28T20:10:12.032Z,12.07
2022-10-28T20:13:13.667Z,9.73
2022-10-28T20:16:16.163Z,7.73
2022-10-28T20:19:17.838Z,6.07
2022-10-28T20:22:19.495Z,8.67
2022-10-28T20:25:21.142Z,14.43
2022-10-28T20:28:22.811Z,11.90
2022-10-28T20:31:29.364Z,10.13
2022-10-28T20:34:31.053Z,8.80
2022-10-28T20:37:32.686Z,8.30
2022-10-28T20:40:34.396Z,6.37
2022-10-28T20:43:36.019Z,6.43
2022-10-28T20:46:37.733Z,4.47
2022-10-28T20:49:42.583Z,5.10
2022-10-28T20:52:44.203Z,4.13
2022-10-28T20:55:46.268Z,5.00
2022-10-28T20:58:47.956Z,4.43
2022-10-28T21:01:49.911Z,5.20
2022-10-28T21:04:51.685Z,5.70
2022-10-28T21:07:54.675Z,4.87
2022-10-28T21:10:56.531Z,5.27
2022-10-28T21:14:00.443Z,4.57
2022-10-28T21:17:02.190Z,5.13
2022-10-28T21:20:04.303Z,4.93
2022-10-28T21:23:06.355Z,4.57
2022-10-28T21:26:10.286Z,4.57
2022-10-28T21:29:11.904Z,5.17
2022-10-28T21:32:13.533Z,5.10
2022-10-28T21:35:15.611Z,5.30
2022-10-28T21:38:17.965Z,5.23
2022-10-28T21:41:20.986Z,5.77
2022-10-28T21:44:22.613Z,4.53
2022-10-28T21:47:24.369Z,4.87
2022-10-28T21:50:26.010Z,5.50
2022-10-28T21:53:31.016Z,5.43
2022-10-28T21:56:32.771Z,4.93
2022-10-28T21:59:34.413Z,4.70
2022-10-28T22:02:36.181Z,5.33
2022-10-28T22:05:38.005Z,4.97
2022-10-28T22:08:39.938Z,4.47
2022-10-28T22:11:41.607Z,4.90
2022-10-28T22:14:43.238Z,5.10
2022-10-28T22:17:44.935Z,4.87
2022-10-28T22:20:46.608Z,4.57
2022-10-28T22:23:48.755Z,4.77
2022-10-28T22:26:50.402Z,4.87
2022-10-28T22:29:52.102Z,4.60
2022-10-28T22:32:53.946Z,5.53
2022-10-28T22:36:00.584Z,5.70
2022-10-28T22:39:02.321Z,6.07
2022-10-28T22:42:04.086Z,5.07
2022-10-28T22:45:06.247Z,4.47
2022-10-28T22:48:07.894Z,4.63
2022-10-28T22:51:10.203Z,4.97
2022-10-28T22:54:11.818Z,5.07
2022-10-28T22:57:13.516Z,4.50
2022-10-28T23:00:15.570Z,4.80
2022-10-28T23:03:17.473Z,5.70
2022-10-28T23:06:21.821Z,4.73
2022-10-28T23:09:23.520Z,4.77
2022-10-28T23:12:25.278Z,4.50
2022-10-28T23:15:27.545Z,4.80
2022-10-28T23:18:29.207Z,4.83
2022-10-28T23:21:30.875Z,5.50
2022-10-28T23:24:32.532Z,5.57
2022-10-28T23:27:34.245Z,5.43
2022-10-28T23:30:35.876Z,4.93
2022-10-28T23:33:37.498Z,6.00
2022-10-28T23:36:40.020Z,5.03
2022-10-28T23:39:41.645Z,5.17
2022-10-28T23:42:43.298Z,4.37
2022-10-28T23:45:44.930Z,5.00
2022-10-28T23:48:46.602Z,4.97
2022-10-28T23:51:48.305Z,4.97
2022-10-28T23:54:49.951Z,4.80
2022-10-28T23:57:51.590Z,5.03
